Owensboro, KY

5:34 PM CST on February 14, 2016 (GMT -0600)
Owensboro-Daviess County | | Change Station
CLOSE
Current Station
Airport
Location: Owensboro,
Elevation: 407 ft
Nearby Weather Stations
Active Advisory: Winter Weather Advisory Active Notice: Local Storm Report

Elev 407 ft 37.74 °N, 87.17 °W | Updated 8 minutes ago

Overcast
Overcast
25 °F
Feels Like 16 °F
N
8
Wind Variable Wind from ESE

Today
High -- | Low -- °F
--% Chance of Precip.
Yesterday
High -- | Low -- °F
Precip. -- in
Pressure 30.07 in
Visibility 1.5 miles
Clouds Mostly Cloudy 1000 ft
Overcast 2800 ft
Windchill 16 °F
Dew Point 23 °F
Humidity 93%
Rainfall 0.04 in
Snow Depth Not available.
6:40 AM 5:26 PM
Waxing Crescent, 46% visible
SPECI KOWB 142326Z 11007KT 1 1/2SM -SN BR BKN010 OVC028 M04/M05 A3007 RMK AO2 P0000
Pressure 30.07 in
Visibility 1.5 miles
Clouds Mostly Cloudy 1000 ft
Overcast 2800 ft
Windchill 16 °F
Dew Point 23 °F
Humidity 93%
Rainfall 0.04 in
Snow Depth Not available.
6:40 AM 5:26 PM
Waxing Crescent, 46% visible
SPECI KOWB 142326Z 11007KT 1 1/2SM -SN BR BKN010 OVC028 M04/M05 A3007 RMK AO2 P0000

10-Day Weather Forecast

Almanac

Astronomy

Feb. 14, 2016 Rise Set
Actual Time
Civil Twilight
Nautical Twilight
Astronomical Twilight
Moon
Length of Visible Light
Length of Day
Tomorrow will be .
, % of the Moon is Illuminated

Today's Extremes

State Highs State Lows

Community

WunderPhotos

Upload Photos

1,892,925 photos uploaded!

WunderBlog® & News

Nearby

Air Quality

  Air Quality AQ Index Pollutant
Not available.

Snow Depth

Station Depth Elevation

Earthquake Activity

City Distance Mag. Time & Date
Minimum magnitude displayed is 2.5.

Coastal Water Temperatures

Place Temperature

Stations

Nearby Weather Stations

Station Location Temp. Windchill Dew Point Humidity Wind Precip. Elev Updated Type
                   

Watches & Warnings

Winter Weather Advisory
Issued: 4:15 PM CST Feb. 14, 2016 – National Weather Service

... Winter Weather Advisory remains in effect until 3 am CST
Monday...

A Winter Weather Advisory remains in effect until 3 am CST
Monday.

* Timing... snow and sleet will continue to transition over to
freezing rain or drizzle this evening. Precipitation will slowly
diminish from northwest to southeast this evening and overnight.
After midnight tonight temperatures are expected to begin warming
from the south to just above freezing over the southeast half of
our cwa.

* Even though only minor additional sleet and freezing drizzle
accumulations are expected... many roadways will remain hazardous
throughout the night.

Precautionary/preparedness actions...

A Winter Weather Advisory means that periods of snow... sleet... or
freezing rain will cause travel difficulties. Be prepared for
slippery roads and limited visibilities... and use caution while
driving.



Jp